Time;durP1;ratioP1;P1;durP2;ratioP2;P2;SDS_P1;SDS_P2;PMS_P1;PMS_P2;Temp;Humidity;BMP_temperature;BMP_pressure;BME280_temperature;BME280_humidity;BME280_pressure;Samples;Min_cycle;Max_cycle;Signal;HPM_P1;HPM_P2
2022/07/03 00:02:26;;;;;;;;;;;;;;;19.13;56.06;100408.09;5054291;28;19920;-60
2022/07/03 00:04:53;;;;;;;;;;;;;;;19.13;56.06;100402.44;5054014;28;19920;-61
2022/07/03 00:07:20;;;;;;;;;;;;;;;19.09;56.17;100408.03;5043311;28;20377;-61
2022/07/03 00:09:48;;;;;;;;;;;;;;;19.03;56.29;100410.34;5054228;28;19920;-60
2022/07/03 00:12:15;;;;;;;;;;;;;;;19.04;56.40;100402.69;5053762;28;19920;-60
2022/07/03 00:14:42;;;;;;;;;;;;;;;19.01;56.28;100401.44;5054203;28;19927;-60
2022/07/03 00:17:09;;;;;;;;;;;;;;;19.00;56.03;100387.69;5048759;28;20099;-60
2022/07/03 00:19:36;;;;;;;;;;;;;;;18.93;56.61;100391.19;5053865;28;19925;-60
2022/07/03 00:22:04;;;;;;;;;;;;;;;18.75;57.16;100389.97;5053399;28;19920;-60
2022/07/03 00:24:33;;;;;;;;;;;;;;;18.70;57.16;100401.59;5053988;28;19921;-60
2022/07/03 00:27:02;;;;;;;;;;;;;;;18.66;57.29;100401.50;5051135;28;19929;-61
2022/07/03 00:29:32;;;;;;;;;;;;;;;18.61;57.33;100393.34;5052495;28;19921;-60
2022/07/03 00:31:59;;;;;;;;;;;;;;;18.60;57.27;100395.31;5053982;28;20361;-60
2022/07/03 00:34:26;;;;;;;;;;;;;;;18.59;57.42;100392.91;5053589;28;20281;-61
2022/07/03 00:36:53;;;;;;;;;;;;;;;18.56;57.85;100386.00;5033887;28;20309;-60
2022/07/03 00:39:20;;;;;;;;;;;;;;;18.50;58.03;100393.13;5033748;28;19948;-61
2022/07/03 00:41:47;;;;;;;;;;;;;;;18.48;57.95;100386.19;5033578;28;19921;-60
2022/07/03 00:44:16;;;;;;;;;;;;;;;18.42;58.32;100380.06;5032997;28;19920;-61
2022/07/03 00:46:48;;;;;;;;;;;;;;;18.38;58.22;100377.16;5041746;28;20008;-60
2022/07/03 00:49:18;;;;;;;;;;;;;;;18.38;58.08;100379.16;5053417;28;19927;-60
2022/07/03 00:51:51;;;;;;;;;;;;;;;18.34;58.15;100390.34;5053704;28;19928;-61
2022/07/03 00:54:20;;;;;;;;;;;;;;;18.28;58.71;100385.38;5053405;28;19927;-61
2022/07/03 00:56:51;;;;;;;;;;;;;;;18.20;58.87;100385.19;5048174;28;19998;-60
2022/07/03 00:59:19;;;;;;;;;;;;;;;18.13;58.97;100379.41;5052893;28;20383;-61
2022/07/03 01:01:47;;;;;;;;;;;;;;;18.03;59.41;100391.25;5053563;28;20393;-60
2022/07/03 01:04:21;;;;;;;;;;;;;;;18.07;58.95;100391.34;5052750;28;19920;-61
2022/07/03 01:06:52;;;;;;;;;;;;;;;18.06;59.18;100387.72;5047015;28;19920;-61
2022/07/03 01:09:24;;;;;;;;;;;;;;;17.97;59.28;100392.72;5052760;28;20293;-61
2022/07/03 01:11:55;;;;;;;;;;;;;;;17.98;58.88;100389.53;5053171;28;19927;-61
2022/07/03 01:14:28;;;;;;;;;;;;;;;17.98;59.19;100394.38;5036792;28;20269;-61
2022/07/03 01:16:57;;;;;;;;;;;;;;;17.96;59.25;100393.94;5036479;28;19932;-61
2022/07/03 01:19:35;;;;;;;;;;;;;;;17.99;59.02;100398.81;5051770;28;19924;-61
2022/07/03 01:22:10;;;;;;;;;;;;;;;18.00;59.20;100397.66;5052886;28;19920;-60
2022/07/03 01:24:55;;;;;;;;;;;;;;;18.03;59.43;100391.25;5052791;28;19921;-61
2022/07/03 01:27:28;;;;;;;;;;;;;;;18.07;59.31;100394.97;5047889;28;20292;-62
2022/07/03 01:29:59;;;;;;;;;;;;;;;18.10;59.04;100390.59;5052965;28;19927;-61
2022/07/03 01:32:32;;;;;;;;;;;;;;;18.10;59.17;100382.97;5052543;28;20299;-62
2022/07/03 01:35:01;;;;;;;;;;;;;;;18.14;59.14;100381.06;5048060;28;19931;-62
2022/07/03 01:37:30;;;;;;;;;;;;;;;18.14;59.12;100383.03;5045507;28;19947;-62
2022/07/03 01:39:58;;;;;;;;;;;;;;;18.15;58.99;100384.69;5032759;28;19921;-62
2022/07/03 01:42:29;;;;;;;;;;;;;;;18.11;59.46;100378.97;5032663;28;19936;-62
2022/07/03 01:44:57;;;;;;;;;;;;;;;18.10;59.08;100373.69;5032549;28;19928;-62
2022/07/03 01:47:25;;;;;;;;;;;;;;;18.02;59.22;100375.53;5049784;28;19929;-62
2022/07/03 01:49:54;;;;;;;;;;;;;;;17.97;59.29;100373.00;5052380;28;19921;-62
2022/07/03 01:52:23;;;;;;;;;;;;;;;17.88;59.78;100378.84;5052294;28;19932;-60
2022/07/03 01:54:50;;;;;;;;;;;;;;;17.62;60.67;100370.94;5052270;28;19924;-60
2022/07/03 01:57:17;;;;;;;;;;;;;;;17.63;60.53;100369.75;5047911;28;19921;-60
2022/07/03 01:59:46;;;;;;;;;;;;;;;17.62;60.55;100366.13;5052420;28;20253;-60
2022/07/03 02:02:18;;;;;;;;;;;;;;;17.62;60.74;100371.75;5046202;28;19920;-61
2022/07/03 02:04:51;;;;;;;;;;;;;;;17.54;60.76;100367.13;5052068;28;19921;-60
2022/07/03 02:07:21;;;;;;;;;;;;;;;17.50;60.84;100369.03;5051959;28;19921;-60
2022/07/03 02:09:50;;;;;;;;;;;;;;;17.49;60.82;100384.31;5042145;28;20242;-60
2022/07/03 02:12:19;;;;;;;;;;;;;;;17.48;60.85;100376.22;5031975;28;19921;-61
2022/07/03 02:14:54;;;;;;;;;;;;;;;17.48;60.57;100376.22;5050940;28;19920;-60
2022/07/03 02:17:22;;;;;;;;;;;;;;;17.49;60.74;100377.84;5051988;28;20027;-61
2022/07/03 02:19:53;;;;;;;;;;;;;;;17.50;61.32;100376.69;5042854;28;19921;-60
2022/07/03 02:22:43;;;;;;;;;;;;;;;;;;;;;
2022/07/03 02:25:16;;;;;;;;;;;;;;;17.38;60.83;100372.75;5045768;28;19932;-60
2022/07/03 02:27:44;;;;;;;;;;;;;;;17.40;60.56;100364.75;5052256;28;20376;-65
2022/07/03 02:30:13;;;;;;;;;;;;;;;17.40;60.61;100358.31;5051424;28;19921;-65
2022/07/03 02:32:44;;;;;;;;;;;;;;;17.38;60.91;100367.13;5050951;28;20293;-64
2022/07/03 02:35:12;;;;;;;;;;;;;;;17.35;60.89;100370.69;5049168;28;19921;-65
2022/07/03 02:37:41;;;;;;;;;;;;;;;17.37;60.85;100365.50;5052035;28;19927;-65
2022/07/03 02:40:08;;;;;;;;;;;;;;;17.40;60.67;100370.41;5055516;28;20384;-65
2022/07/03 02:42:39;;;;;;;;;;;;;;;17.45;60.94;100360.88;5055847;28;19921;-65
2022/07/03 02:45:08;;;;;;;;;;;;;;;17.48;61.05;100362.13;5050764;28;19928;-65
2022/07/03 02:47:41;;;;;;;;;;;;;;;17.53;60.95;100359.84;5055436;28;19921;-65
2022/07/03 02:50:09;;;;;;;;;;;;;;;17.58;60.84;100350.31;5055784;28;19927;-65
2022/07/03 02:52:44;;;;;;;;;;;;;;;17.57;60.59;100359.94;5055882;28;19928;-65
2022/07/03 02:55:19;;;;;;;;;;;;;;;17.61;60.34;100358.03;5051017;28;19947;-64
2022/07/03 02:57:45;;;;;;;;;;;;;;;17.65;59.93;100361.75;5055839;28;19925;-65
2022/07/03 03:00:13;;;;;;;;;;;;;;;17.63;59.68;100353.66;5055572;28;20281;-65
2022/07/03 03:02:51;;;;;;;;;;;;;;;17.62;60.23;100351.22;5055770;28;19928;-65
2022/07/03 03:05:23;;;;;;;;;;;;;;;17.52;60.63;100351.78;5050410;28;19925;-65
2022/07/03 03:07:54;;;;;;;;;;;;;;;17.39;60.89;100356.69;5055688;28;19920;-65
2022/07/03 03:10:21;;;;;;;;;;;;;;;17.36;60.93;100363.84;5040843;28;19925;-65
2022/07/03 03:12:52;;;;;;;;;;;;;;;17.33;60.82;100358.16;5035728;28;20293;-65
2022/07/03 03:15:21;;;;;;;;;;;;;;;17.28;61.03;100362.03;5034169;28;20301;-65
2022/07/03 03:17:51;;;;;;;;;;;;;;;17.25;61.03;100365.59;5050924;28;19921;-65
2022/07/03 03:20:18;;;;;;;;;;;;;;;17.21;61.40;100367.50;5055279;28;19920;-65
2022/07/03 03:22:57;;;;;;;;;;;;;;;17.19;61.25;100372.66;5044807;28;19928;-65
2022/07/03 03:25:24;;;;;;;;;;;;;;;17.19;61.44;100364.22;5038526;28;19921;-65
2022/07/03 03:27:52;;;;;;;;;;;;;;;17.20;61.13;100368.69;5054929;28;20300;-65
2022/07/03 03:30:19;;;;;;;;;;;;;;;17.13;61.44;100362.84;5055104;28;19921;-65
2022/07/03 03:32:46;;;;;;;;;;;;;;;16.74;63.02;100360.59;5051665;28;19926;-65
2022/07/03 03:35:15;;;;;;;;;;;;;;;16.64;63.42;100358.28;5050320;28;19921;-65
2022/07/03 03:37:42;;;;;;;;;;;;;;;16.72;63.09;100357.31;5055132;28;20272;-65
2022/07/03 03:40:09;;;;;;;;;;;;;;;16.74;62.86;100368.22;5055069;28;19927;-65
2022/07/03 03:42:37;;;;;;;;;;;;;;;16.77;62.99;100365.47;5054591;28;19920;-65
2022/07/03 03:45:04;;;;;;;;;;;;;;;16.79;63.01;100363.13;5050625;28;20356;-65
2022/07/03 03:47:31;;;;;;;;;;;;;;;16.82;63.12;100365.25;5054413;28;19924;-65
2022/07/03 03:49:58;;;;;;;;;;;;;;;16.86;63.08;100372.97;5054083;28;19920;-64
2022/07/03 03:52:27;;;;;;;;;;;;;;;16.90;63.01;100369.06;5054505;28;19927;-65
2022/07/03 03:54:54;;;;;;;;;;;;;;;16.88;63.00;100377.06;5051089;28;19928;-65
2022/07/03 03:57:22;;;;;;;;;;;;;;;16.92;63.00;100372.34;5054443;28;19924;-66
2022/07/03 03:59:49;;;;;;;;;;;;;;;16.99;62.63;100366.94;5054730;28;19920;-66
2022/07/03 04:02:16;;;;;;;;;;;;;;;17.01;62.96;100378.63;5054428;28;19921;-66
2022/07/03 04:04:43;;;;;;;;;;;;;;;17.06;63.01;100371.94;5042156;28;19921;-67
2022/07/03 04:07:10;;;;;;;;;;;;;;;17.09;62.69;100382.44;5014418;28;19921;-67
2022/07/03 04:09:38;;;;;;;;;;;;;;;17.09;62.67;100376.81;5023026;28;19921;-67
2022/07/03 04:12:06;;;;;;;;;;;;;;;17.08;62.62;100374.38;5034491;28;19921;-66
2022/07/03 04:14:33;;;;;;;;;;;;;;;17.07;62.90;100372.72;5036071;28;19928;-66
2022/07/03 04:17:00;;;;;;;;;;;;;;;17.04;63.01;100372.28;5054697;28;19920;-67
2022/07/03 04:19:27;;;;;;;;;;;;;;;17.00;63.38;100374.19;5054104;28;19920;-66
2022/07/03 04:21:54;;;;;;;;;;;;;;;17.07;63.12;100372.72;5054328;28;19921;-66
2022/07/03 04:24:21;;;;;;;;;;;;;;;17.09;63.49;100381.63;5051682;28;20402;-66
2022/07/03 04:26:49;;;;;;;;;;;;;;;17.17;63.05;100377.84;5051295;28;19920;-67
2022/07/03 04:29:16;;;;;;;;;;;;;;;17.18;63.19;100374.66;5053838;28;19927;-67
2022/07/03 04:31:43;;;;;;;;;;;;;;;17.21;63.50;100373.13;5052721;28;19921;-66
2022/07/03 04:34:10;;;;;;;;;;;;;;;17.35;62.90;100381.13;5043327;28;19921;-67
2022/07/03 04:36:37;;;;;;;;;;;;;;;17.44;63.08;100379.75;5053769;28;20293;-67
2022/07/03 04:39:04;;;;;;;;;;;;;;;17.54;62.76;100380.41;5054097;28;19939;-67
2022/07/03 04:41:31;;;;;;;;;;;;;;;17.58;62.50;100384.13;5053580;28;19921;-67
2022/07/03 04:43:59;;;;;;;;;;;;;;;17.64;62.21;100391.13;5049086;28;19921;-67
2022/07/03 04:46:26;;;;;;;;;;;;;;;17.71;62.06;100391.28;5053479;28;19928;-67
2022/07/03 04:48:53;;;;;;;;;;;;;;;17.79;61.84;100386.66;5053742;28;20266;-67
2022/07/03 04:51:20;;;;;;;;;;;;;;;17.92;61.33;100395.84;5053880;28;19921;-67
2022/07/03 04:53:47;;;;;;;;;;;;;;;17.98;60.93;100388.75;5049550;28;19921;-65
2022/07/03 04:56:14;;;;;;;;;;;;;;;17.98;59.98;100386.72;5054019;28;19928;-67
2022/07/03 04:58:41;;;;;;;;;;;;;;;18.08;59.97;100385.34;5053239;28;20288;-67
2022/07/03 05:01:09;;;;;;;;;;;;;;;18.20;59.44;100382.38;5053638;28;19927;-67
2022/07/03 05:03:36;;;;;;;;;;;;;;;18.28;58.88;100389.00;5050230;28;19925;-66
2022/07/03 05:06:03;;;;;;;;;;;;;;;18.38;58.81;100391.25;5052056;28;20388;-66
2022/07/03 05:08:30;;;;;;;;;;;;;;;18.53;58.48;100400.84;5053451;28;19944;-66
2022/07/03 05:10:57;;;;;;;;;;;;;;;18.64;58.42;100401.06;5033592;28;20346;-67
2022/07/03 05:13:24;;;;;;;;;;;;;;;18.76;57.92;100391.63;5033527;28;19921;-67
2022/07/03 05:15:51;;;;;;;;;;;;;;;18.95;57.57;100397.28;5047972;28;20272;-66
2022/07/03 05:18:19;;;;;;;;;;;;;;;19.03;57.19;100392.59;5053536;28;19928;-67
2022/07/03 05:20:46;;;;;;;;;;;;;;;19.15;57.20;100388.78;5053436;28;19921;-67
2022/07/03 05:23:13;;;;;;;;;;;;;;;19.21;56.71;100398.56;5052990;28;19920;-67
2022/07/03 05:25:40;;;;;;;;;;;;;;;19.24;56.94;100397.84;5049883;28;19920;-67
2022/07/03 05:28:07;;;;;;;;;;;;;;;19.34;56.64;100397.22;5053042;28;19943;-65
2022/07/03 05:30:34;;;;;;;;;;;;;;;19.45;56.31;100392.56;5052942;28;20353;-66
2022/07/03 05:33:01;;;;;;;;;;;;;;;19.53;56.22;100395.50;5048251;28;19928;-66
2022/07/03 05:35:29;;;;;;;;;;;;;;;19.59;56.59;100394.81;5052881;28;19921;-66
2022/07/03 05:37:56;;;;;;;;;;;;;;;19.70;56.57;100388.50;5047404;28;19921;-66
2022/07/03 05:40:22;;;;;;;;;;;;;;;19.78;56.41;100393.13;5033334;28;19928;-66
2022/07/03 05:42:49;;;;;;;;;;;;;;;19.80;56.32;100396.38;5034287;28;20011;-65
2022/07/03 05:45:16;;;;;;;;;;;;;;;19.78;56.26;100399.59;5052949;28;20369;-66
2022/07/03 05:47:43;;;;;;;;;;;;;;;19.91;56.01;100393.72;5052611;28;20369;-66
2022/07/03 05:50:11;;;;;;;;;;;;;;;19.96;55.91;100399.06;5052517;28;19979;-66
2022/07/03 05:52:39;;;;;;;;;;;;;;;20.04;55.87;100404.44;5050652;28;20373;-65
2022/07/03 05:55:06;;;;;;;;;;;;;;;20.13;55.54;100404.16;5050029;28;19920;-66
2022/07/03 05:57:33;;;;;;;;;;;;;;;20.19;55.06;100402.63;5052229;28;19925;-66
2022/07/03 06:00:00;;;;;;;;;;;;;;;20.23;54.90;100397.03;5052496;28;19921;-66
2022/07/03 06:02:27;;;;;;;;;;;;;;;20.21;54.98;100400.25;5052445;28;19920;-66
2022/07/03 06:04:54;;;;;;;;;;;;;;;20.31;54.67;100392.31;5035368;28;20278;-66
2022/07/03 06:07:21;;;;;;;;;;;;;;;20.37;54.53;100397.25;5032219;28;19925;-64
2022/07/03 06:09:50;;;;;;;;;;;;;;;20.51;54.54;100398.63;5032484;28;20377;-66
2022/07/03 06:12:17;;;;;;;;;;;;;;;20.64;53.91;100405.69;5032664;28;20277;-66
2022/07/03 06:14:44;;;;;;;;;;;;;;;20.80;53.49;100402.66;5039864;28;19920;-67
2022/07/03 06:17:11;;;;;;;;;;;;;;;20.96;53.19;100405.28;5052499;28;20258;-66
2022/07/03 06:19:38;;;;;;;;;;;;;;;21.16;52.68;100406.72;5051781;28;20285;-66
2022/07/03 06:22:04;;;;;;;;;;;;;;;21.34;52.46;100406.91;5051996;28;20261;-66
2022/07/03 06:24:31;;;;;;;;;;;;;;;21.49;52.35;100405.84;5044337;28;19927;-66
2022/07/03 06:27:00;;;;;;;;;;;;;;;21.56;51.98;100405.09;5049625;28;19992;-66
2022/07/03 06:29:27;;;;;;;;;;;;;;;21.73;51.87;100409.28;5051896;28;19928;-66
2022/07/03 06:31:54;;;;;;;;;;;;;;;21.91;51.57;100395.28;5049363;28;19921;-65
2022/07/03 06:34:20;;;;;;;;;;;;;;;22.05;51.23;100398.22;5044673;28;19936;-66
2022/07/03 06:36:47;;;;;;;;;;;;;;;22.20;50.45;100398.31;5051946;28;20408;-66
2022/07/03 06:39:14;;;;;;;;;;;;;;;22.26;50.59;100403.22;5052137;28;19921;-64
2022/07/03 06:41:41;;;;;;;;;;;;;;;22.38;51.04;100399.22;5033166;28;19928;-67
2022/07/03 06:44:10;;;;;;;;;;;;;;;22.43;51.12;100398.06;5044377;28;20289;-66
2022/07/03 06:46:36;;;;;;;;;;;;;;;22.52;50.65;100404.19;5051954;28;19928;-66
2022/07/03 06:49:03;;;;;;;;;;;;;;;22.59;51.02;100398.53;5051677;28;19925;-66
2022/07/03 06:51:33;;;;;;;;;;;;;;;22.69;50.72;100403.44;5051862;28;19921;-66
2022/07/03 06:54:00;;;;;;;;;;;;;;;22.75;50.84;100411.59;5047960;28;19921;-66
2022/07/03 06:56:27;;;;;;;;;;;;;;;22.79;50.81;100416.06;5051758;28;20266;-66
2022/07/03 06:58:54;;;;;;;;;;;;;;;22.86;49.72;100412.44;5052135;28;19928;-67
2022/07/03 07:01:22;;;;;;;;;;;;;;;22.91;48.94;100417.75;5039061;28;20020;-66
2022/07/03 07:03:49;;;;;;;;;;;;;;;22.94;48.19;100419.78;5031769;28;19921;-66
2022/07/03 07:06:16;;;;;;;;;;;;;;;22.94;48.83;100418.97;5031923;28;19976;-66
2022/07/03 07:08:43;;;;;;;;;;;;;;;23.00;48.12;100423.84;5026724;28;20028;-65
2022/07/03 07:11:10;;;;;;;;;;;;;;;22.90;46.92;100428.28;5028814;28;20373;-65
2022/07/03 07:13:37;;;;;;;;;;;;;;;23.07;47.25;100429.56;5034142;28;19928;-66
2022/07/03 07:16:05;;;;;;;;;;;;;;;23.18;47.43;100431.63;5025226;28;19922;-66
2022/07/03 07:18:34;;;;;;;;;;;;;;;23.33;47.06;100432.47;5035445;28;19921;-66
2022/07/03 07:21:01;;;;;;;;;;;;;;;23.39;46.93;100419.50;5030750;28;19921;-66
2022/07/03 07:23:28;;;;;;;;;;;;;;;23.44;46.93;100428.44;5041950;28;20345;-66
2022/07/03 07:25:55;;;;;;;;;;;;;;;23.53;46.30;100424.41;5034687;28;19921;-66
2022/07/03 07:28:21;;;;;;;;;;;;;;;23.47;46.61;100421.94;5034372;28;19921;-66
2022/07/03 07:30:49;;;;;;;;;;;;;;;23.56;46.22;100423.56;5034436;28;19921;-66
2022/07/03 07:33:16;;;;;;;;;;;;;;;23.74;46.53;100432.94;5034756;28;19927;-66
2022/07/03 07:35:44;;;;;;;;;;;;;;;23.87;46.27;100425.66;5035333;28;19921;-64
2022/07/03 07:38:11;;;;;;;;;;;;;;;23.98;45.89;100434.19;5034440;28;19928;-66
2022/07/03 07:40:38;;;;;;;;;;;;;;;24.10;45.38;100427.25;5033792;28;19921;-66
2022/07/03 07:43:05;;;;;;;;;;;;;;;24.21;45.25;100433.78;5040895;28;19920;-66
2022/07/03 07:45:32;;;;;;;;;;;;;;;24.34;44.03;100427.63;5036489;28;19944;-66
2022/07/03 07:47:59;;;;;;;;;;;;;;;24.44;44.33;100423.94;5033436;28;19925;-66
2022/07/03 07:50:26;;;;;;;;;;;;;;;24.42;43.49;100415.84;5035414;28;20385;-66
2022/07/03 07:52:54;;;;;;;;;;;;;;;24.46;42.65;100421.50;5035190;28;19929;-66
2022/07/03 07:55:21;;;;;;;;;;;;;;;24.64;43.11;100413.75;5033032;28;19929;-65
2022/07/03 07:57:48;;;;;;;;;;;;;;;25.03;43.10;100415.63;5031948;28;19932;-65
2022/07/03 08:00:16;;;;;;;;;;;;;;;25.91;41.21;100412.59;5034909;28;19928;-65
2022/07/03 08:05:37;;;;;;;;;;;;;;;28.17;36.61;100414.50;5017263;28;19921;-64
2022/07/03 08:08:09;;;;;;;;;;;;;;;29.21;34.84;100409.56;5028868;28;19932;-65
2022/07/03 08:10:40;;;;;;;;;;;;;;;30.26;32.58;100408.59;5032677;28;19929;-65
2022/07/03 08:13:07;;;;;;;;;;;;;;;31.18;31.06;100415.00;5035016;28;20270;-65
2022/07/03 08:15:35;;;;;;;;;;;;;;;31.89;29.80;100400.34;5039763;28;19924;-65
2022/07/03 08:18:02;;;;;;;;;;;;;;;32.73;28.96;100401.94;5033957;28;19921;-65
2022/07/03 08:20:29;;;;;;;;;;;;;;;33.54;27.31;100411.53;5034522;28;19929;-63
2022/07/03 08:22:56;;;;;;;;;;;;;;;34.35;26.81;100399.03;5033426;28;19928;-65
2022/07/03 08:25:24;;;;;;;;;;;;;;;34.95;24.37;100403.34;5030038;28;19930;-65
2022/07/03 08:27:52;;;;;;;;;;;;;;;35.07;23.29;100398.63;5036196;28;20293;-65
2022/07/03 08:30:19;;;;;;;;;;;;;;;34.89;24.09;100402.41;5029004;28;20385;-66
2022/07/03 08:32:46;;;;;;;;;;;;;;;36.05;23.08;100396.28;5032933;28;20024;-65
2022/07/03 08:35:13;;;;;;;;;;;;;;;36.39;22.02;100397.00;5034407;28;19936;-61
2022/07/03 08:37:42;;;;;;;;;;;;;;;37.10;21.66;100397.31;5031461;28;20031;-65
2022/07/03 08:40:09;;;;;;;;;;;;;;;37.72;21.68;100393.31;5032202;28;19920;-64
2022/07/03 08:42:39;;;;;;;;;;;;;;;38.60;20.89;100381.75;5026843;28;19921;-63
2022/07/03 08:45:07;;;;;;;;;;;;;;;39.53;20.23;100393.19;5051641;28;19928;-64
2022/07/03 08:47:34;;;;;;;;;;;;;;;40.32;18.77;100384.09;5032489;28;19924;-64
2022/07/03 08:50:02;;;;;;;;;;;;;;;40.70;18.39;100382.59;5033929;28;19928;-64
2022/07/03 08:52:29;;;;;;;;;;;;;;;41.20;17.37;100381.06;5033767;28;19928;-65
2022/07/03 08:54:56;;;;;;;;;;;;;;;41.89;16.84;100385.50;5033477;28;21722;-64
2022/07/03 08:57:24;;;;;;;;;;;;;;;41.96;17.31;100385.75;5049771;28;19920;-66
2022/07/03 08:59:54;;;;;;;;;;;;;;;42.55;16.18;100383.63;5052967;28;19920;-66
2022/07/03 09:02:21;;;;;;;;;;;;;;;43.54;15.40;100373.00;5053380;28;19928;-65
2022/07/03 09:04:48;;;;;;;;;;;;;;;43.88;15.05;100372.63;5053062;28;20369;-65
2022/07/03 09:07:18;;;;;;;;;;;;;;;44.33;14.68;100362.47;5049969;28;19928;-65
2022/07/03 09:09:45;;;;;;;;;;;;;;;44.49;14.51;100375.34;5048243;28;19925;-65
2022/07/03 09:12:13;;;;;;;;;;;;;;;44.68;14.70;100378.28;5053083;28;19927;-65
2022/07/03 09:14:40;;;;;;;;;;;;;;;44.98;14.23;100372.19;5052623;28;19927;-65
2022/07/03 09:17:10;;;;;;;;;;;;;;;45.34;14.37;100378.56;5052723;28;19931;-65
2022/07/03 09:19:40;;;;;;;;;;;;;;;45.11;14.09;100369.31;5049512;28;19921;-65
2022/07/03 09:22:17;;;;;;;;;;;;;;;45.00;14.20;100369.50;5052690;28;19928;-65
2022/07/03 09:24:44;;;;;;;;;;;;;;;44.50;14.42;100371.06;5052977;28;19928;-65
2022/07/03 09:27:16;;;;;;;;;;;;;;;45.27;13.55;100390.19;5048416;28;19920;-65
2022/07/03 09:29:51;;;;;;;;;;;;;;;45.44;13.87;100372.22;5039056;28;19921;-65
2022/07/03 09:32:22;;;;;;;;;;;;;;;46.21;13.46;100368.28;5032084;28;19921;-64
2022/07/03 09:34:49;;;;;;;;;;;;;;;47.23;13.08;100371.78;5050852;28;19921;-65
2022/07/03 09:37:24;;;;;;;;;;;;;;;45.85;13.06;100368.75;5053071;28;19921;-64
2022/07/03 09:39:57;;;;;;;;;;;;;;;44.33;14.03;100375.03;5049094;28;19928;-64
2022/07/03 09:42:24;;;;;;;;;;;;;;;42.72;15.30;100383.53;5033010;28;20027;-64
2022/07/03 09:44:55;;;;;;;;;;;;;;;43.31;14.97;100368.72;5025589;28;20381;-64
2022/07/03 09:47:24;;;;;;;;;;;;;;;43.03;15.17;100375.59;5013562;28;19925;-64
2022/07/03 09:49:52;;;;;;;;;;;;;;;43.84;14.64;100371.38;5012250;28;19921;-64
2022/07/03 09:52:29;;;;;;;;;;;;;;;45.32;13.99;100365.75;5013102;28;19922;-65
2022/07/03 09:54:56;;;;;;;;;;;;;;;46.12;12.76;100377.59;5041310;28;19924;-64
2022/07/03 09:57:23;;;;;;;;;;;;;;;45.94;13.47;100361.63;5052511;28;19921;-64
2022/07/03 09:59:50;;;;;;;;;;;;;;;46.14;13.20;100371.94;5051773;28;19921;-64
2022/07/03 10:02:17;;;;;;;;;;;;;;;45.36;13.43;100381.72;5052039;28;19920;-64
2022/07/03 10:04:45;;;;;;;;;;;;;;;43.90;14.05;100364.06;5047566;28;20293;-64
2022/07/03 10:07:12;;;;;;;;;;;;;;;44.41;13.43;100374.38;5051937;28;20293;-64
2022/07/03 10:09:41;;;;;;;;;;;;;;;45.32;13.21;100362.81;5052400;28;19928;-64
2022/07/03 10:12:08;;;;;;;;;;;;;;;46.33;13.09;100377.66;5052285;28;19921;-64
2022/07/03 10:14:35;;;;;;;;;;;;;;;45.52;13.24;100376.88;5044596;28;19920;-63
2022/07/03 10:17:03;;;;;;;;;;;;;;;46.17;13.02;100368.63;5034442;28;19928;-65
2022/07/03 10:19:30;;;;;;;;;;;;;;;45.81;12.82;100365.38;5035386;28;19944;-65
2022/07/03 10:22:00;;;;;;;;;;;;;;;46.71;12.47;100374.41;5029635;28;19925;-65
2022/07/03 10:24:28;;;;;;;;;;;;;;;47.40;11.83;100374.28;5031397;28;19921;-65
2022/07/03 10:26:55;;;;;;;;;;;;;;;47.82;12.10;100371.25;5029761;28;20480;-62
2022/07/03 10:29:23;;;;;;;;;;;;;;;48.63;11.11;100363.97;5030592;28;20362;-62
2022/07/03 10:31:50;;;;;;;;;;;;;;;48.71;11.29;100366.97;5028216;28;19940;-63
2022/07/03 10:34:18;;;;;;;;;;;;;;;49.05;10.75;100368.81;5029466;28;20290;-62
2022/07/03 10:36:47;;;;;;;;;;;;;;;48.64;10.40;100371.50;5027754;28;19921;-62
2022/07/03 10:39:19;;;;;;;;;;;;;;;48.68;10.70;100368.94;5032358;28;19921;-62
2022/07/03 10:44:47;;;;;;;;;;;;;;;46.15;12.89;100370.56;5053966;28;19920;-62
2022/07/03 10:47:47;;;;;;;;;;;;;;;46.24;12.83;100378.13;5052161;28;20376;-64
2022/07/03 10:50:15;;;;;;;;;;;;;;;47.14;11.86;100378.97;4990469;28;19922;-64
2022/07/03 10:52:43;;;;;;;;;;;;;;;47.82;11.22;100369.09;4987064;28;19926;-65
2022/07/03 10:55:12;;;;;;;;;;;;;;;48.25;10.69;100360.84;5016904;28;19921;-63
2022/07/03 10:57:39;;;;;;;;;;;;;;;47.58;11.60;100362.25;5051803;28;19927;-63
2022/07/03 11:00:09;;;;;;;;;;;;;;;45.63;13.04;100366.25;5053697;28;20266;-64
2022/07/03 11:02:37;;;;;;;;;;;;;;;44.05;14.03;100365.75;5055877;28;19928;-63
2022/07/03 11:05:07;;;;;;;;;;;;;;;43.36;14.96;100356.13;5049600;28;20380;-64
2022/07/03 11:07:35;;;;;;;;;;;;;;;44.63;13.92;100358.59;5048095;28;19921;-64
2022/07/03 11:10:20;;;;;;;;;;;;;;;45.28;13.39;100354.34;5055591;28;19929;-63
2022/07/03 11:12:58;;;;;;;;;;;;;;;45.57;13.09;100363.41;5045032;28;19931;-63
2022/07/03 11:15:25;;;;;;;;;;;;;;;44.55;13.13;100358.44;5055593;28;19928;-64
2022/07/03 11:18:07;;;;;;;;;;;;;;;44.39;12.99;100354.38;5039335;28;19945;-64
2022/07/03 11:20:35;;;;;;;;;;;;;;;45.08;13.00;100358.66;5044228;28;20250;-64
2022/07/03 11:23:08;;;;;;;;;;;;;;;45.83;12.14;100356.75;5052123;28;19921;-64
2022/07/03 11:25:39;;;;;;;;;;;;;;;43.16;13.79;100361.09;5047297;28;19921;-63
2022/07/03 11:28:07;;;;;;;;;;;;;;;41.95;13.95;100368.72;5045230;28;19921;-64
2022/07/03 11:30:34;;;;;;;;;;;;;;;40.84;14.34;100359.53;5055351;28;19928;-64
2022/07/03 11:33:02;;;;;;;;;;;;;;;41.66;14.66;100355.50;5055070;28;19924;-64
2022/07/03 11:35:47;;;;;;;;;;;;;;;40.75;14.87;100367.22;5055535;28;20360;-64
2022/07/03 11:38:15;;;;;;;;;;;;;;;41.53;13.88;100356.06;5048183;28;19932;-64
2022/07/03 11:40:43;;;;;;;;;;;;;;;41.48;14.42;100363.50;5027301;28;19921;-62
2022/07/03 11:43:12;;;;;;;;;;;;;;;41.88;14.19;100357.59;5035332;28;19928;-64
2022/07/03 11:45:40;;;;;;;;;;;;;;;41.99;14.86;100355.38;5035109;28;19920;-63
2022/07/03 11:48:08;;;;;;;;;;;;;;;42.41;15.09;100361.34;5019698;28;20377;-63
2022/07/03 11:50:38;;;;;;;;;;;;;;;43.02;15.01;100356.41;5015491;28;19928;-63
2022/07/03 11:53:22;;;;;;;;;;;;;;;43.37;14.58;100355.56;5015356;28;19937;-63
2022/07/03 11:55:50;;;;;;;;;;;;;;;44.46;13.47;100350.03;5015179;28;19928;-63
2022/07/03 11:58:18;;;;;;;;;;;;;;;45.20;12.92;100364.34;5016326;28;19922;-64
2022/07/03 12:00:45;;;;;;;;;;;;;;;45.36;12.85;100363.25;5039035;28;19921;-63
2022/07/03 12:03:16;;;;;;;;;;;;;;;45.11;12.88;100363.44;5054503;28;19920;-63
2022/07/03 12:05:53;;;;;;;;;;;;;;;43.57;14.11;100348.41;5054176;28;19921;-62
2022/07/03 12:08:24;;;;;;;;;;;;;;;42.28;14.93;100355.31;5054742;28;20276;-63
2022/07/03 12:10:56;;;;;;;;;;;;;;;41.35;15.82;100357.41;5049862;28;19921;-63
2022/07/03 12:13:25;;;;;;;;;;;;;;;41.25;16.22;100351.06;5054684;28;20369;-63
2022/07/03 12:15:52;;;;;;;;;;;;;;;41.34;16.58;100361.69;5054498;28;19921;-63
2022/07/03 12:18:19;;;;;;;;;;;;;;;41.92;16.21;100355.97;5054272;28;19925;-63
2022/07/03 12:20:46;;;;;;;;;;;;;;;42.09;15.54;100349.28;5042669;28;19987;-62
2022/07/03 12:23:13;;;;;;;;;;;;;;;42.50;14.46;100348.53;5054216;28;19921;-63
2022/07/03 12:25:40;;;;;;;;;;;;;;;42.21;14.87;100350.81;5054440;28;19921;-63
2022/07/03 12:28:09;;;;;;;;;;;;;;;42.39;13.80;100352.28;5028486;28;19940;-63
2022/07/03 12:30:38;;;;;;;;;;;;;;;42.65;14.30;100345.22;5014733;28;19921;-63
2022/07/03 12:33:05;;;;;;;;;;;;;;;42.90;14.67;100340.25;5014040;28;19925;-63
2022/07/03 12:35:32;;;;;;;;;;;;;;;42.90;14.66;100325.63;5014456;28;19921;-63
2022/07/03 12:37:59;;;;;;;;;;;;;;;42.90;14.73;100340.25;5040995;28;19924;-63
2022/07/03 12:40:26;;;;;;;;;;;;;;;42.73;14.92;100340.38;5037678;28;20369;-63
2022/07/03 12:42:53;;;;;;;;;;;;;;;42.83;14.90;100329.13;5033965;28;20357;-62
2022/07/03 12:45:21;;;;;;;;;;;;;;;42.57;14.54;100327.47;5034234;28;20369;-63
2022/07/03 12:47:59;;;;;;;;;;;;;;;42.05;14.11;100346.63;5027077;28;19921;-63
2022/07/03 12:50:26;;;;;;;;;;;;;;;41.33;14.00;100339.63;5042944;28;19920;-63
2022/07/03 12:52:54;;;;;;;;;;;;;;;41.65;14.00;100343.03;5053605;28;19921;-62